Hlavní strana
METAR-TAF:

METAR-TAF

Letiště :

Kédougou, Senegal

zeměpisná šířka: 12-34N, zeměpisná délka: 012-13W, výška: 178 m

Aktuální stav počasí

Zpráva byla vytvořena před 3 hodinami a 28 minutami, v 21:00 UTC
Západní vítr 6 kt
Teplota 37°C
Vlhkost vzduchu 21%
Tlak 1007 hPa
Viditelnost 10 km a více
Žádná oblačnost pod 1500 m, nevyskytují se cumulonimby.

METAR: GOTK 192100Z 28006KT CAVOK 37/11 Q1007

Čas: 00:28 (00:28 UTC)


TAF: chybějící

Stav a předpovědi počasí z více než 4 000 letišť (zprávy METAR a TAF).

Červené a žluté tečky na mapě představují dostupné meteorologické stanice.

Když kurzor umístíte na tečku, zobrazí se název stanice.

Pak kliknutím zobrazíte stav a předpověď počasí.

Chcete-li změnit mapu, kliknutím na zelené tlačítko se znaménkem +mapu přiblížíte, kliknutím na zelené tlačítko se znaménkem – mapu oddálíte a kliknutím na zelené šipky přejdete na sousední mapy.


METAR-TAF: